createdAt,value
2023-05-14T00:01:53.885Z,96221.38
2023-05-14T00:04:39.725Z,96214.28
2023-05-14T00:07:30.605Z,96210.75
2023-05-14T00:10:15.589Z,96214.28
2023-05-14T00:13:01.106Z,96202.13
2023-05-14T00:15:46.019Z,96202.78
2023-05-14T00:18:31.272Z,96193.97
2023-05-14T00:21:17.116Z,96182.78
2023-05-14T00:24:02.221Z,96183.44
2023-05-14T00:26:47.322Z,96182.50
2023-05-14T00:29:32.441Z,96186.00
2023-05-14T00:32:17.540Z,96194.81
2023-05-14T00:35:05.868Z,96188.66
2023-05-14T00:37:50.695Z,96196.53
2023-05-14T00:40:36.143Z,96197.34
2023-05-14T00:43:22.606Z,96192.88
2023-05-14T00:46:08.089Z,96196.41
2023-05-14T00:48:53.817Z,96192.03
2023-05-14T00:51:39.859Z,96185.88
2023-05-14T00:54:25.198Z,96186.84
2023-05-14T00:57:10.878Z,96183.22
2023-05-14T00:59:56.265Z,96178.03
2023-05-14T01:02:41.548Z,96177.19
2023-05-14T01:05:34.242Z,96179.84
2023-05-14T01:08:28.482Z,96175.38
2023-05-14T01:11:24.158Z,96168.38
2023-05-14T01:14:18.021Z,96172.72
2023-05-14T01:17:06.356Z,96169.22
2023-05-14T01:19:52.283Z,96169.94
2023-05-14T01:22:37.856Z,96161.13
2023-05-14T01:25:22.808Z,96162.91
2023-05-14T01:28:11.165Z,96166.31
2023-05-14T01:31:06.517Z,96167.19
2023-05-14T01:33:52.430Z,96155.19
2023-05-14T01:36:38.985Z,96169.94
2023-05-14T01:39:25.739Z,96161.97
2023-05-14T01:42:11.229Z,96163.78
2023-05-14T01:44:57.406Z,96164.63
2023-05-14T01:47:42.511Z,96156.13
2023-05-14T01:50:27.815Z,96160.25
2023-05-14T01:53:13.499Z,96163.56
2023-05-14T01:55:58.640Z,96166.22
2023-05-14T01:58:43.856Z,96163.56
2023-05-14T02:01:29.747Z,96154.94
2023-05-14T02:04:18.046Z,96159.22
2023-05-14T02:07:03.369Z,96158.34
2023-05-14T02:09:48.555Z,96155.91
2023-05-14T02:12:33.856Z,96162.81
2023-05-14T02:15:18.862Z,96146.22
2023-05-14T02:18:04.303Z,96147.63
2023-05-14T02:20:49.411Z,96154.75
2023-05-14T02:23:41.596Z,96144.13
2023-05-14T02:26:28.032Z,96145.81
2023-05-14T02:29:13.608Z,96138.25
2023-05-14T02:31:58.760Z,96137.44
2023-05-14T02:34:44.104Z,96136.34
2023-05-14T02:37:29.592Z,96143.38
2023-05-14T02:40:14.640Z,96145.06
2023-05-14T02:42:59.829Z,96139.88
2023-05-14T02:45:45.085Z,96141.78
2023-05-14T02:48:30.612Z,96138.81
2023-05-14T02:51:16.585Z,96140.63
2023-05-14T02:54:01.716Z,96138.72
2023-05-14T02:56:47.189Z,96129.03
2023-05-14T02:59:32.373Z,96133.59
2023-05-14T03:02:18.199Z,96137.09
2023-05-14T03:05:03.885Z,96132.75
2023-05-14T03:07:51.318Z,96133.59
2023-05-14T03:10:37.015Z,96136.34
2023-05-14T03:13:22.000Z,96132.75
2023-05-14T03:16:07.431Z,96120.31
2023-05-14T03:18:53.102Z,96118.94
2023-05-14T03:21:38.448Z,96120.41
2023-05-14T03:24:23.647Z,96121.28
2023-05-14T03:27:09.537Z,96122.13
2023-05-14T03:29:54.824Z,96116.81
2023-05-14T03:32:40.781Z,96117.66
2023-05-14T03:35:25.861Z,96120.31
2023-05-14T03:38:11.018Z,96122.13
2023-05-14T03:40:55.832Z,96104.81
2023-05-14T03:43:41.200Z,96112.44
2023-05-14T03:46:26.197Z,96126.38
2023-05-14T03:49:11.575Z,96121.06
2023-05-14T03:51:59.274Z,96118.50
2023-05-14T03:54:44.775Z,96118.50
2023-05-14T03:57:30.314Z,96109.03
2023-05-14T04:00:15.968Z,96104.69
2023-05-14T04:03:04.225Z,96111.59
2023-05-14T04:05:51.053Z,96109.78
2023-05-14T04:08:36.300Z,96109.78
2023-05-14T04:11:21.630Z,96104.59
2023-05-14T04:14:07.715Z,96106.38
2023-05-14T04:16:52.755Z,96110.66
2023-05-14T04:19:37.982Z,96115.09
2023-05-14T04:22:23.489Z,96109.78
2023-05-14T04:25:08.765Z,96105.44
2023-05-14T04:27:53.993Z,96104.59
2023-05-14T04:30:39.039Z,96104.69
2023-05-14T04:33:24.245Z,96102.25
2023-05-14T04:36:09.447Z,96101.16
2023-05-14T04:38:54.683Z,96102.16
2023-05-14T04:41:39.635Z,96099.50
2023-05-14T04:44:24.692Z,96105.53
2023-05-14T04:47:09.695Z,96112.66
2023-05-14T04:49:54.773Z,96113.50
2023-05-14T04:52:39.753Z,96112.56
2023-05-14T04:55:24.988Z,96121.38
2023-05-14T04:58:10.248Z,96122.31
2023-05-14T05:00:55.307Z,96116.16
2023-05-14T05:03:40.691Z,96102.03
2023-05-14T05:06:26.153Z,96117.09
2023-05-14T05:09:11.762Z,96118.72
2023-05-14T05:11:56.860Z,96125.72
2023-05-14T05:14:42.071Z,96123.81
2023-05-14T05:17:27.400Z,96124.78
2023-05-14T05:20:13.320Z,96121.38
2023-05-14T05:22:59.454Z,96124.97
2023-05-14T05:25:44.589Z,96129.34
2023-05-14T05:28:29.622Z,96126.78
2023-05-14T05:31:15.212Z,96119.66
2023-05-14T05:34:01.313Z,96123.19
2023-05-14T05:36:46.165Z,96130.28
2023-05-14T05:39:34.626Z,96124.97
2023-05-14T05:42:19.603Z,96131.91
2023-05-14T05:45:05.520Z,96130.09
2023-05-14T05:47:50.870Z,96130.19
2023-05-14T05:50:36.011Z,96125.31
2023-05-14T05:53:02.725Z,96132.00
2023-05-14T05:55:29.473Z,96127.63
2023-05-14T05:57:56.198Z,96132.00
2023-05-14T06:00:23.921Z,96136.47
2023-05-14T06:02:52.296Z,96136.47
2023-05-14T06:05:19.504Z,96134.66
2023-05-14T06:07:46.201Z,96141.66
2023-05-14T06:10:12.781Z,96144.22
2023-05-14T06:12:39.480Z,96141.56
2023-05-14T06:15:06.778Z,96152.09
2023-05-14T06:17:33.467Z,96144.97
2023-05-14T06:20:00.118Z,96151.13
2023-05-14T06:22:26.726Z,96141.78
2023-05-14T06:24:53.391Z,96142.53
2023-05-14T06:27:19.936Z,96153.69
2023-05-14T06:29:46.540Z,96151.84
2023-05-14T06:32:15.581Z,96164.19
2023-05-14T06:34:42.561Z,96159.84
2023-05-14T06:37:10.144Z,96150.38
2023-05-14T06:39:37.405Z,96141.78
2023-05-14T06:42:04.346Z,96142.09
2023-05-14T06:44:31.071Z,96151.56
2023-05-14T06:46:57.623Z,96155.09
2023-05-14T06:49:24.147Z,96150.59
2023-05-14T06:51:50.746Z,96149.88
2023-05-14T06:54:17.445Z,96143.81
2023-05-14T06:56:44.003Z,96148.78
2023-05-14T06:59:10.575Z,96149.63
2023-05-14T07:01:37.319Z,96131.47
2023-05-14T07:04:04.030Z,96146.03
2023-05-14T07:06:30.810Z,96152.19
2023-05-14T07:08:57.327Z,96157.50
2023-05-14T07:11:23.888Z,96151.25
2023-05-14T07:13:50.485Z,96153.91
2023-05-14T07:16:18.348Z,96156.56
2023-05-14T07:18:45.591Z,96153.91
2023-05-14T07:21:12.497Z,96152.19
2023-05-14T07:23:39.129Z,96153.03
2023-05-14T07:26:07.966Z,96146.88
2023-05-14T07:28:34.670Z,96137.44
2023-05-14T07:31:01.472Z,96139.75
2023-05-14T07:33:28.094Z,96132.66
2023-05-14T07:35:54.757Z,96133.50
2023-05-14T07:38:21.390Z,96124.25
2023-05-14T07:40:47.971Z,96133.41
2023-05-14T07:43:14.606Z,96136.88
2023-05-14T07:45:41.382Z,96130.72
2023-05-14T07:48:08.456Z,96133.25
2023-05-14T07:50:35.205Z,96121.78
2023-05-14T07:53:01.794Z,96117.44
2023-05-14T07:55:28.638Z,96119.03
2023-05-14T07:57:55.540Z,96117.31
2023-05-14T08:00:22.519Z,96113.81
2023-05-14T08:02:50.184Z,96116.56
2023-05-14T08:05:17.740Z,96119.13
2023-05-14T08:07:44.821Z,96117.31
2023-05-14T08:10:11.511Z,96123.59
2023-05-14T08:12:38.909Z,96125.28
2023-05-14T08:15:07.641Z,96130.59
2023-05-14T08:17:34.269Z,96125.41
2023-05-14T08:20:01.391Z,96123.50
2023-05-14T08:22:28.113Z,96120.84
2023-05-14T08:24:54.961Z,96113.72
2023-05-14T08:27:21.647Z,96114.66
2023-05-14T08:29:48.293Z,96118.19
2023-05-14T08:32:22.814Z,96118.19
2023-05-14T08:34:50.888Z,96106.81
2023-05-14T08:37:17.430Z,96105.94
2023-05-14T08:39:44.296Z,96105.84
2023-05-14T08:42:13.066Z,96104.16
2023-05-14T08:44:47.062Z,96097.03
2023-05-14T08:47:15.281Z,96085.56
2023-05-14T08:49:43.301Z,96086.59
2023-05-14T08:52:10.666Z,96089.25
2023-05-14T08:54:37.525Z,96097.25
2023-05-14T08:57:05.041Z,96081.28
2023-05-14T08:59:31.710Z,96094.59
2023-05-14T09:02:01.957Z,96089.25
2023-05-14T09:04:29.597Z,96084.09
2023-05-14T09:06:56.164Z,96089.50
2023-05-14T09:09:23.225Z,96078.13
2023-05-14T09:11:51.551Z,96085.03
2023-05-14T09:14:18.880Z,96086.75
2023-05-14T09:16:46.809Z,96087.59
2023-05-14T09:19:15.589Z,96094.72
2023-05-14T09:21:42.329Z,96085.13
2023-05-14T09:24:09.116Z,96087.59
2023-05-14T09:26:35.838Z,96088.66
2023-05-14T09:29:02.738Z,96081.63
2023-05-14T09:31:31.489Z,96084.94
2023-05-14T09:33:58.691Z,96085.78
2023-05-14T09:36:27.129Z,96075.13
2023-05-14T09:38:56.807Z,96082.03
2023-05-14T09:41:23.485Z,96083.66
2023-05-14T09:43:53.786Z,96074.94
2023-05-14T09:46:21.770Z,96080.66
2023-05-14T09:48:48.329Z,96081.63
2023-05-14T09:51:15.990Z,96080.00
2023-05-14T09:53:44.220Z,96069.63
2023-05-14T09:56:10.794Z,96062.59
2023-05-14T09:58:37.399Z,96062.69
2023-05-14T10:01:04.507Z,96063.88
2023-05-14T10:03:31.654Z,96064.94
2023-05-14T10:06:02.275Z,96063.25
2023-05-14T10:08:34.045Z,96063.25
2023-05-14T10:11:02.480Z,96059.00
2023-05-14T10:13:31.694Z,96046.34
2023-05-14T10:16:06.732Z,96051.81
2023-05-14T10:18:34.718Z,96051.91
2023-05-14T10:21:05.660Z,96050.81
2023-05-14T10:23:32.668Z,96045.50
2023-05-14T10:25:59.757Z,96052.66
2023-05-14T10:28:26.771Z,96044.44
2023-05-14T10:30:54.234Z,96047.97
2023-05-14T10:33:20.998Z,96045.09
2023-05-14T10:36:02.196Z,96037.97
2023-05-14T10:38:30.148Z,96041.88
2023-05-14T10:41:01.966Z,96045.38
2023-05-14T10:43:30.757Z,96052.31
2023-05-14T10:45:58.641Z,96050.38
2023-05-14T10:48:25.906Z,96050.28
2023-05-14T10:50:53.495Z,96058.03
2023-05-14T10:53:20.318Z,96054.31
2023-05-14T10:55:47.142Z,96053.25
2023-05-14T10:58:14.917Z,96033.25
2023-05-14T11:00:41.540Z,96049.41
2023-05-14T11:03:08.348Z,96046.75
2023-05-14T11:05:37.213Z,96049.28
2023-05-14T11:08:07.787Z,96049.28
2023-05-14T11:10:35.487Z,96052.69
2023-05-14T11:13:02.398Z,96042.91
2023-05-14T11:15:29.095Z,96043.75
2023-05-14T11:17:56.038Z,96046.31
2023-05-14T11:20:22.888Z,96051.66
2023-05-14T11:22:51.735Z,96047.16
2023-05-14T11:25:22.783Z,96052.63
2023-05-14T11:27:50.075Z,96047.16
2023-05-14T11:30:20.405Z,96038.66
2023-05-14T11:32:48.254Z,96039.34
2023-05-14T11:35:15.631Z,96045.38
2023-05-14T11:37:43.099Z,96037.41
2023-05-14T11:40:14.962Z,96045.38
2023-05-14T11:42:41.804Z,96029.44
2023-05-14T11:45:12.111Z,96027.06
2023-05-14T11:47:39.166Z,96037.41
2023-05-14T11:50:07.999Z,96035.69
2023-05-14T11:52:41.875Z,96032.94
2023-05-14T11:55:12.834Z,96031.97
2023-05-14T11:57:41.018Z,96029.31
2023-05-14T12:00:16.634Z,96023.16
2023-05-14T12:02:43.297Z,96007.44
2023-05-14T12:05:12.933Z,96005.69
2023-05-14T12:07:39.583Z,95989.97
2023-05-14T12:10:06.527Z,95982.13
2023-05-14T12:12:39.251Z,95976.19
2023-05-14T12:15:13.353Z,95965.75
2023-05-14T12:17:40.147Z,95963.44
2023-05-14T12:20:11.294Z,95958.03
2023-05-14T12:22:38.554Z,95950.25
2023-05-14T12:25:13.191Z,95946.78
2023-05-14T12:27:39.951Z,95941.66
2023-05-14T12:30:20.522Z,95945.69
2023-05-14T12:32:52.669Z,95937.63
2023-05-14T12:35:20.929Z,95940.16
2023-05-14T12:37:47.443Z,95939.91
2023-05-14T12:40:14.238Z,95935.47
2023-05-14T12:42:40.975Z,95930.03
2023-05-14T12:45:08.503Z,95932.56
2023-05-14T12:47:36.166Z,95931.50
2023-05-14T12:50:03.024Z,95932.47
2023-05-14T12:54:59.205Z,95927.25
2023-05-14T12:57:26.881Z,95925.59
2023-05-14T12:59:54.058Z,95909.31
2023-05-14T13:02:21.884Z,95915.28
2023-05-14T13:04:48.504Z,95922.19
2023-05-14T13:07:15.520Z,95930.03
2023-05-14T13:09:42.176Z,95921.94
2023-05-14T13:12:09.219Z,95925.44
2023-05-14T13:14:36.387Z,95917.59
2023-05-14T13:17:04.751Z,95902.50
2023-05-14T13:19:31.496Z,95911.31
2023-05-14T13:21:58.052Z,95906.00
2023-05-14T13:24:25.157Z,95903.34
2023-05-14T13:26:51.822Z,95899.00
2023-05-14T13:29:18.423Z,95899.13
2023-05-14T13:31:45.019Z,95891.25
2023-05-14T13:34:12.972Z,95887.84
2023-05-14T13:36:40.181Z,95877.22
2023-05-14T13:39:07.085Z,95881.72
2023-05-14T13:41:35.670Z,95875.88
2023-05-14T13:44:02.283Z,95873.84
2023-05-14T13:46:29.167Z,95872.13
2023-05-14T13:48:55.872Z,95857.38
2023-05-14T13:51:23.297Z,95856.19
2023-05-14T13:53:51.092Z,95857.16
2023-05-14T13:56:17.676Z,95864.16
2023-05-14T13:58:44.269Z,95857.16
2023-05-14T14:01:10.893Z,95804.75
2023-05-14T14:03:37.498Z,95856.44
2023-05-14T14:06:04.098Z,95857.38
2023-05-14T14:08:31.149Z,95860.91
2023-05-14T14:10:57.786Z,95855.59
2023-05-14T14:13:24.596Z,95845.19
2023-05-14T14:15:51.417Z,95842.75
2023-05-14T14:18:18.105Z,95844.25
2023-05-14T14:20:44.676Z,95850.38
2023-05-14T14:23:11.223Z,95841.69
2023-05-14T14:25:37.769Z,95841.59
2023-05-14T14:28:04.502Z,95833.00
2023-05-14T14:30:32.559Z,95834.03
2023-05-14T14:33:01.110Z,95837.44
2023-05-14T14:35:27.860Z,95842.63
2023-05-14T14:37:55.629Z,95829.72
2023-05-14T14:40:23.687Z,95825.03
2023-05-14T14:42:50.571Z,95822.38
2023-05-14T14:45:17.411Z,95825.03
2023-05-14T14:47:45.812Z,95827.78
2023-05-14T14:50:13.102Z,95812.94
2023-05-14T14:52:45.486Z,95805.91
2023-05-14T14:55:12.725Z,95797.72
2023-05-14T14:57:39.379Z,95781.38
2023-05-14T15:00:07.234Z,95773.88
2023-05-14T15:02:34.260Z,95763.72
2023-05-14T15:05:01.288Z,95761.63
2023-05-14T15:07:28.004Z,95773.81
2023-05-14T15:09:54.642Z,95776.47
2023-05-14T15:12:21.252Z,95782.50
2023-05-14T15:14:47.913Z,95791.22
2023-05-14T15:17:14.480Z,95792.56
2023-05-14T15:19:41.111Z,95800.69
2023-05-14T15:22:07.736Z,95793.25
2023-05-14T15:24:34.359Z,95793.00
2023-05-14T15:27:01.010Z,95790.69
2023-05-14T15:29:28.589Z,95801.94
2023-05-14T15:31:55.406Z,95803.03
2023-05-14T15:34:22.056Z,95801.44
2023-05-14T15:36:48.694Z,95801.78
2023-05-14T15:39:15.322Z,95800.53
2023-05-14T15:41:41.972Z,95817.03
2023-05-14T15:44:08.645Z,95819.94
2023-05-14T15:46:35.671Z,95830.56
2023-05-14T15:49:02.403Z,95842.03
2023-05-14T15:51:29.102Z,95839.38
2023-05-14T15:53:55.892Z,95841.91
2023-05-14T15:56:22.833Z,95840.19
2023-05-14T15:58:49.916Z,95847.72
2023-05-14T16:01:16.710Z,95851.09
2023-05-14T16:03:43.573Z,95855.38
2023-05-14T16:06:11.542Z,95860.56
2023-05-14T16:08:38.420Z,95864.91
2023-05-14T16:11:06.109Z,95866.63
2023-05-14T16:13:32.817Z,95864.69
2023-05-14T16:15:59.669Z,95875.31
2023-05-14T16:18:26.473Z,95881.38
2023-05-14T16:20:53.607Z,95884.22
2023-05-14T16:23:20.418Z,95875.63
2023-05-14T16:25:46.972Z,95891.13
2023-05-14T16:28:13.841Z,95884.88
2023-05-14T16:30:40.460Z,95892.00
2023-05-14T16:33:07.144Z,95900.81
2023-05-14T16:35:33.845Z,95902.50
2023-05-14T16:38:00.606Z,95899.84
2023-05-14T16:40:27.171Z,95899.97
2023-05-14T16:42:53.824Z,95904.41
2023-05-14T16:45:20.591Z,95903.47
2023-05-14T16:47:47.210Z,95906.94
2023-05-14T16:50:13.870Z,95906.13
2023-05-14T16:52:40.525Z,95905.91
2023-05-14T16:55:07.447Z,95904.94
2023-05-14T16:57:34.528Z,95903.25
2023-05-14T17:00:01.321Z,95912.78
2023-05-14T17:02:28.015Z,95918.09
2023-05-14T17:04:55.254Z,95923.41
2023-05-14T17:07:21.961Z,95920.75
2023-05-14T17:09:48.633Z,95918.00
2023-05-14T17:12:15.384Z,95928.63
2023-05-14T17:14:41.931Z,95930.41
2023-05-14T17:17:08.496Z,95927.88
2023-05-14T17:19:35.134Z,95927.16
2023-05-14T17:22:01.783Z,95938.50
2023-05-14T17:24:28.361Z,95936.81
2023-05-14T17:26:54.973Z,95937.63
2023-05-14T17:29:21.559Z,95941.03
2023-05-14T17:31:48.648Z,95942.84
2023-05-14T17:34:15.291Z,95937.53
2023-05-14T17:36:41.919Z,95944.44
2023-05-14T17:39:09.035Z,95943.59
2023-05-14T17:41:35.661Z,95945.50
2023-05-14T17:44:02.192Z,95930.53
2023-05-14T17:46:28.991Z,95928.09
2023-05-14T17:48:55.622Z,95935.13
2023-05-14T17:51:22.215Z,95941.28
2023-05-14T17:53:48.767Z,95943.59
2023-05-14T17:56:17.490Z,95939.25
2023-05-14T17:58:44.745Z,95937.63
2023-05-14T18:01:11.578Z,95937.16
2023-05-14T18:03:38.636Z,95934.59
2023-05-14T18:06:05.665Z,95940.25
2023-05-14T18:08:32.224Z,95925.47
2023-05-14T18:11:00.706Z,95924.88
2023-05-14T18:13:27.404Z,95934.63
2023-05-14T18:15:56.312Z,95925.81
2023-05-14T18:18:24.003Z,95926.78
2023-05-14T18:20:51.927Z,95931.75
2023-05-14T18:23:18.675Z,95923.16
2023-05-14T18:25:45.932Z,95925.06
2023-05-14T18:28:12.794Z,95927.47
2023-05-14T18:30:39.512Z,95926.41
2023-05-14T18:33:06.281Z,95912.16
2023-05-14T18:35:33.089Z,95902.50
2023-05-14T18:37:59.688Z,95903.47
2023-05-14T18:40:26.334Z,95902.81
2023-05-14T18:42:52.886Z,95893.28
2023-05-14T18:45:19.516Z,95890.00
2023-05-14T18:47:46.218Z,95889.06
2023-05-14T18:50:12.920Z,95889.06
2023-05-14T18:52:39.535Z,95885.53
2023-05-14T18:55:06.405Z,95888.19
2023-05-14T18:57:33.182Z,95899.69
2023-05-14T19:00:03.862Z,95892.66
2023-05-14T19:02:31.128Z,95895.31
2023-05-14T19:04:57.768Z,95891.81
2023-05-14T19:07:24.488Z,95893.50
2023-05-14T19:09:51.482Z,95902.34
2023-05-14T19:12:18.099Z,95899.69
2023-05-14T19:14:44.682Z,95901.34
2023-05-14T19:17:11.462Z,95902.34
2023-05-14T19:19:39.246Z,95917.28
2023-05-14T19:22:06.281Z,95926.09
2023-05-14T19:24:33.106Z,95923.22
2023-05-14T19:26:59.735Z,95932.03
2023-05-14T19:29:26.392Z,95933.75
2023-05-14T19:31:53.065Z,95939.91
2023-05-14T19:34:19.830Z,95925.06
2023-05-14T19:36:46.446Z,95930.03
2023-05-14T19:39:13.191Z,95932.56
2023-05-14T19:41:39.799Z,95927.16
2023-05-14T19:44:06.410Z,95932.34
2023-05-14T19:46:33.049Z,95929.69
2023-05-14T19:48:59.834Z,95931.38
2023-05-14T19:51:26.438Z,95934.25
2023-05-14T19:53:53.074Z,95939.34
2023-05-14T19:56:19.648Z,95937.53
2023-05-14T19:58:46.239Z,95949.88
2023-05-14T20:01:13.238Z,95941.03
2023-05-14T20:03:39.981Z,95938.50
2023-05-14T20:06:07.680Z,95928.94
2023-05-14T20:08:34.319Z,95925.66
2023-05-14T20:11:00.941Z,95925.53
2023-05-14T20:13:27.628Z,95918.56
2023-05-14T20:15:55.166Z,95919.50
2023-05-14T20:18:22.054Z,95925.53
2023-05-14T20:20:48.977Z,95928.00
2023-05-14T20:23:15.937Z,95925.97
2023-05-14T20:25:43.049Z,95921.50
2023-05-14T20:28:10.355Z,95922.13
2023-05-14T20:30:37.100Z,95920.31
2023-05-14T20:33:03.939Z,95913.91
2023-05-14T20:35:31.056Z,95920.09
2023-05-14T20:37:57.645Z,95910.53
2023-05-14T20:40:24.639Z,95921.66
2023-05-14T20:42:51.528Z,95918.03
2023-05-14T20:45:18.156Z,95913.69
2023-05-14T20:47:44.950Z,95923.34
2023-05-14T20:50:11.843Z,95916.47
2023-05-14T20:52:38.479Z,95917.19
2023-05-14T20:55:05.596Z,95921.66
2023-05-14T20:57:32.203Z,95916.34
2023-05-14T20:59:58.814Z,95909.31
2023-05-14T21:02:25.599Z,95905.84
2023-05-14T21:04:52.571Z,95913.81
2023-05-14T21:07:19.318Z,95901.50
2023-05-14T21:09:50.790Z,95900.63
2023-05-14T21:12:17.752Z,95895.56
2023-05-14T21:14:44.370Z,95899.69
2023-05-14T21:17:11.055Z,95903.19
2023-05-14T21:19:37.647Z,95891.09
2023-05-14T21:22:04.353Z,95901.34
2023-05-14T21:24:30.921Z,95897.13
2023-05-14T21:26:57.769Z,95899.78
2023-05-14T21:29:24.439Z,95894.47
2023-05-14T21:31:53.712Z,95898.09
2023-05-14T21:34:20.380Z,95899.78
2023-05-14T21:36:47.155Z,95892.91
2023-05-14T21:39:13.812Z,95894.72
2023-05-14T21:41:40.359Z,95896.50
2023-05-14T21:44:06.999Z,95894.72
2023-05-14T21:46:33.782Z,95886.84
2023-05-14T21:49:00.483Z,95890.34
2023-05-14T21:51:27.300Z,95882.38
2023-05-14T21:53:53.841Z,95884.94
2023-05-14T21:56:21.036Z,95885.88
2023-05-14T21:58:47.667Z,95863.50
2023-05-14T22:01:14.535Z,95890.25
2023-05-14T22:03:41.820Z,95878.16
2023-05-14T22:06:08.507Z,95884.09
2023-05-14T22:08:35.152Z,95883.13
2023-05-14T22:11:01.798Z,95884.09
2023-05-14T22:13:28.617Z,95876.97
2023-05-14T22:16:05.197Z,95884.94
2023-05-14T22:18:36.562Z,95888.44
2023-05-14T22:21:03.621Z,95882.38
2023-05-14T22:23:30.314Z,95884.09
2023-05-14T22:25:57.525Z,95879.63
2023-05-14T22:28:24.143Z,95884.94
2023-05-14T22:30:51.093Z,95882.28
2023-05-14T22:33:19.246Z,95874.31
2023-05-14T22:35:46.114Z,95867.28
2023-05-14T22:38:13.760Z,95863.88
2023-05-14T22:40:40.550Z,95872.59
2023-05-14T22:43:07.156Z,95877.91
2023-05-14T22:45:33.723Z,95881.44
2023-05-14T22:48:00.540Z,95880.56
2023-05-14T22:50:27.155Z,95881.44
2023-05-14T22:52:53.798Z,95877.06
2023-05-14T22:55:20.433Z,95877.91
2023-05-14T22:57:47.075Z,95875.34
2023-05-14T23:00:13.995Z,95873.56
2023-05-14T23:02:40.748Z,95864.72
2023-05-14T23:05:10.205Z,95864.72
2023-05-14T23:07:36.936Z,95867.38
2023-05-14T23:10:04.045Z,95860.41
2023-05-14T23:12:30.685Z,95857.75
2023-05-14T23:14:59.040Z,95847.94
2023-05-14T23:17:25.958Z,95851.59
2023-05-14T23:19:52.917Z,95855.06
2023-05-14T23:22:20.299Z,95852.53
2023-05-14T23:24:46.946Z,95842.75
2023-05-14T23:27:13.567Z,95855.06
2023-05-14T23:29:40.211Z,95845.41
2023-05-14T23:32:07.118Z,95846.38
2023-05-14T23:34:37.542Z,95835.03
2023-05-14T23:37:04.288Z,95831.28
2023-05-14T23:39:30.890Z,95836.59
2023-05-14T23:41:57.518Z,95835.75
2023-05-14T23:44:24.126Z,95824.72
2023-05-14T23:46:50.834Z,95834.91
2023-05-14T23:49:17.372Z,95838.41
2023-05-14T23:51:44.054Z,95838.41
2023-05-14T23:54:10.707Z,95833.09
2023-05-14T23:56:37.364Z,95837.56
2023-05-14T23:59:03.949Z,95828.72
